Kyle Oakley Field


Codes: KCEY/CEY
Name: Kyle Oakley Field
City: Murray
Country: United States
Elevation: 577 ft.
Website:
Wikipedia:

Photos at Kyle Oakley Field


   Photos courtesy of SpottingLog. You can add your own sightings and photos by signing up for a free trial today.



No photos found.

Weather at Kyle Oakley Field


Time (UTC)DescriptionTempratureWindCloud coverageVisibilityPressureHumidity
23-May-2024 18:00Light Rain24°C9 mph, SW100%10000m1013hPa88%
23-May-2024 21:00Light Rain25°C9 mph, S99%10000m1013hPa83%
24-May-2024 00:00Moderate Rain23°C13 mph, S86%10000m1012hPa91%
24-May-2024 03:00Moderate Rain20°C9 mph, S99%10000m1012hPa95%
24-May-2024 06:00Light Rain20°C7 mph, S99%10000m1011hPa96%
24-May-2024 09:00Light Rain19°C7 mph, S100%10000m1011hPa98%
24-May-2024 12:00Light Rain19°C4 mph, SW100%10000m1011hPa97%
24-May-2024 15:00Light Rain23°C9 mph, S89%10000m1011hPa80%
24-May-2024 18:00Broken Clouds26°C9 mph, SW55%10000m1011hPa69%
24-May-2024 21:00Light Rain26°C7 mph, S79%10000m1009hPa76%
25-May-2024 00:00Light Rain24°C7 mph, S89%10000m1009hPa87%
25-May-2024 03:00Light Rain21°C9 mph, S60%10000m1010hPa97%
25-May-2024 06:00Light Rain21°C7 mph, S63%10000m1010hPa96%
25-May-2024 09:00Light Rain20°C7 mph, SW84%10000m1010hPa97%
25-May-2024 12:00Moderate Rain21°C2 mph, W55%10000m1011hPa97%
25-May-2024 15:00Scattered Clouds25°C2 mph, W42%10000m1011hPa83%
25-May-2024 18:00Light Rain28°C7 mph, SW42%10000m1011hPa71%
25-May-2024 21:00Light Rain29°C7 mph, SW22%10000m1009hPa69%
26-May-2024 00:00Light Rain26°C4 mph, S19%10000m1009hPa84%
26-May-2024 03:00Clear Sky22°C7 mph, S7%10000m1010hPa94%
26-May-2024 06:00Few Clouds21°C7 mph, S13%10000m1009hPa96%
26-May-2024 09:00Light Rain21°C9 mph, S100%10000m1008hPa95%
26-May-2024 12:00Light Rain22°C16 mph, S81%10000m1007hPa93%
26-May-2024 15:00Few Clouds26°C18 mph, SW18%10000m1007hPa81%
26-May-2024 18:00Few Clouds29°C20 mph, SW12%10000m1005hPa72%
26-May-2024 21:00Clear Sky29°C22 mph, SW1%10000m1004hPa71%
27-May-2024 00:00Clear Sky26°C20 mph, SW0%10000m1004hPa80%
27-May-2024 03:00Light Rain25°C18 mph, SW0%10000m1005hPa81%
27-May-2024 06:00Light Rain24°C16 mph, W0%10000m1005hPa85%
27-May-2024 09:00Clear Sky21°C7 mph, SW0%10000m1006hPa97%
27-May-2024 12:00Clear Sky21°C7 mph, SW1%10000m1008hPa95%
27-May-2024 15:00Clear Sky25°C9 mph, W0%10000m1010hPa71%
27-May-2024 18:00Clear Sky27°C11 mph, W0%10000m1010hPa63%
27-May-2024 21:00Few Clouds25°C11 mph, N24%10000m1010hPa71%
28-May-2024 00:00Scattered Clouds22°C9 mph, N27%10000m1011hPa81%
28-May-2024 03:00Few Clouds19°C9 mph, N11%10000m1013hPa86%
28-May-2024 06:00Clear Sky16°C7 mph, N7%10000m1014hPa87%
28-May-2024 09:00Few Clouds14°C7 mph, NE17%10000m1016hPa88%
28-May-2024 12:00Few Clouds14°C4 mph, NE12%10000m1017hPa88%
28-May-2024 15:00Clear Sky20°C4 mph, NE0%10000m1017hPa69%